Time;durP1;ratioP1;P1;durP2;ratioP2;P2;SDS_P1;SDS_P2;PMS_P1;PMS_P2;Temp;Humidity;BMP_temperature;BMP_pressure;BME280_temperature;BME280_humidity;BME280_pressure;Samples;Min_cycle;Max_cycle;Signal;HPM_P1;HPM_P2
2021/09/30 00:02:05;;;;;;;9.53;1.90;;;11.20;99.90;;;;;;5041148;28;20176;-89
2021/09/30 00:04:31;;;;;;;10.10;1.77;;;11.10;99.90;;;;;;5069040;28;20189;-87
2021/09/30 00:06:57;;;;;;;8.13;1.70;;;11.10;99.90;;;;;;5049139;28;20585;-87
2021/09/30 00:09:23;;;;;;;9.13;2.13;;;11.10;99.90;;;;;;5029709;28;20240;-87
2021/09/30 00:11:53;;;;;;;7.00;1.90;;;11.10;99.90;;;;;;5047924;28;20272;-88
2021/09/30 00:15:05;;;;;;;4.93;1.63;;;11.10;99.90;;;;;;5065004;28;20200;-88
2021/09/30 02:25:37;;;;;;;14.83;2.37;;;10.40;99.90;;;;;;5058412;28;20242;-87
2021/09/30 02:58:55;;;;;;;9.10;2.20;;;10.10;99.90;;;;;;5068127;28;20188;-89
2021/09/30 03:01:23;;;;;;;9.77;2.30;;;10.10;99.90;;;;;;5053006;28;20307;-89
2021/09/30 03:03:57;;;;;;;10.30;2.03;;;10.10;99.90;;;;;;5051425;28;20229;-89
2021/09/30 03:06:25;;;;;;;8.60;2.20;;;10.10;99.90;;;;;;5038986;28;20249;-89
2021/09/30 03:08:54;;;;;;;11.17;2.27;;;10.10;99.90;;;;;;5033149;28;20316;-89
2021/09/30 03:11:21;;;;;;;10.17;2.20;;;10.10;99.90;;;;;;5038095;28;20272;-89
2021/09/30 03:13:50;;;;;;;10.40;2.40;;;10.10;99.90;;;;;;5069179;28;20191;-89
2021/09/30 03:19:30;;;;;;;8.17;2.07;;;10.10;99.90;;;;;;5051289;28;20190;-89
2021/09/30 03:22:14;;;;;;;10.90;2.10;;;10.00;99.90;;;;;;5052152;28;20186;-88
2021/09/30 03:24:49;;;;;;;8.73;1.90;;;10.00;99.90;;;;;;5032571;28;20177;-89
2021/09/30 03:27:16;;;;;;;11.70;2.30;;;10.00;99.90;;;;;;5052729;28;20185;-88
2021/09/30 03:29:43;;;;;;;11.37;2.23;;;10.00;99.90;;;;;;5029148;28;20186;-88
2021/09/30 03:32:10;;;;;;;8.67;2.10;;;10.00;99.90;;;;;;5033506;28;20324;-88
2021/09/30 03:35:14;;;;;;;6.60;1.87;;;10.00;99.90;;;;;;5055058;28;20198;-88
2021/09/30 03:37:40;;;;;;;9.53;1.90;;;10.00;99.90;;;;;;5036859;28;20722;-88
2021/09/30 03:40:07;;;;;;;10.43;2.30;;;10.00;99.90;;;;;;5068431;28;20680;-89
2021/09/30 03:42:32;;;;;;;8.07;1.93;;;10.00;99.90;;;;;;5063860;28;20255;-88
2021/09/30 03:45:06;;;;;;;12.90;2.73;;;10.00;99.90;;;;;;5034980;28;20251;-88
2021/09/30 03:47:32;;;;;;;11.93;2.27;;;10.00;99.90;;;;;;5067975;28;20750;-88
2021/09/30 03:50:07;;;;;;;11.97;1.70;;;10.00;99.90;;;;;;5036770;28;20548;-88
2021/09/30 04:01:07;;;;;;;8.53;1.90;;;10.00;99.90;;;;;;5051804;28;20195;-88
2021/09/30 04:03:36;;;;;;;12.73;1.97;;;10.00;99.90;;;;;;5036828;28;20178;-88
2021/09/30 04:06:02;;;;;;;9.10;1.73;;;10.00;99.90;;;;;;5082606;28;20184;-88
2021/09/30 04:08:31;;;;;;;10.13;1.80;;;10.00;99.90;;;;;;5036814;28;20230;-88
2021/09/30 04:10:57;;;;;;;9.03;1.73;;;9.90;99.90;;;;;;5064933;28;20185;-88
2021/09/30 04:13:23;;;;;;;7.70;1.80;;;9.80;99.90;;;;;;5052597;28;20723;-88
2021/09/30 04:15:50;;;;;;;5.60;1.57;;;9.80;99.90;;;;;;5053735;28;20204;-88
2021/09/30 04:18:17;;;;;;;11.40;2.00;;;9.90;99.90;;;;;;5038077;28;20179;-88
2021/09/30 04:20:58;;;;;;;8.00;2.10;;;9.90;99.90;;;;;;5083305;27;20606;-81
2021/09/30 04:23:24;;;;;;;11.37;2.20;;;9.90;99.90;;;;;;5065758;28;20177;-81
2021/09/30 04:25:50;;;;;;;7.57;2.03;;;9.90;99.90;;;;;;5069474;28;20284;-80
2021/09/30 04:28:19;;;;;;;8.50;2.40;;;9.90;99.90;;;;;;5080199;28;20200;-81
2021/09/30 04:30:45;;;;;;;8.87;1.90;;;9.90;99.90;;;;;;5065178;28;20702;-81
2021/09/30 04:33:33;;;;;;;10.70;2.27;;;9.90;99.90;;;;;;5087912;28;20193;-81
2021/09/30 04:35:59;;;;;;;5.50;1.90;;;9.90;99.90;;;;;;5085871;28;20240;-81
2021/09/30 04:38:25;;;;;;;9.40;1.77;;;9.80;99.90;;;;;;5070016;28;20212;-81
2021/09/30 04:40:52;;;;;;;5.60;1.80;;;9.80;99.90;;;;;;5088829;28;20221;-80
2021/09/30 04:43:19;;;;;;;9.77;2.13;;;9.70;99.90;;;;;;5065470;28;20201;-81
2021/09/30 04:45:44;;;;;;;6.93;1.80;;;9.70;99.90;;;;;;5065299;28;20175;-82
2021/09/30 04:48:16;;;;;;;8.47;2.20;;;9.70;99.90;;;;;;5081251;28;20199;-80
2021/09/30 04:50:46;;;;;;;8.63;1.90;;;9.70;99.90;;;;;;5069172;28;20280;-82
2021/09/30 04:53:14;;;;;;;11.20;2.03;;;9.70;99.90;;;;;;5066059;28;20720;-81
2021/09/30 04:55:40;;;;;;;8.83;1.63;;;9.80;99.90;;;;;;5067240;28;20548;-81
2021/09/30 04:58:07;;;;;;;11.30;2.10;;;9.80;99.90;;;;;;5075312;28;20189;-81
2021/09/30 05:00:35;;;;;;;10.47;1.60;;;9.80;99.90;;;;;;5068291;28;20750;-81
2021/09/30 05:03:13;;;;;;;6.13;1.50;;;9.80;99.90;;;;;;5071301;28;20188;-81
2021/09/30 05:05:39;;;;;;;9.47;1.87;;;9.90;99.90;;;;;;5081680;28;20263;-81
2021/09/30 05:08:05;;;;;;;7.47;1.80;;;9.90;99.90;;;;;;5081559;28;20281;-82
2021/09/30 05:10:34;;;;;;;9.43;1.97;;;9.90;99.90;;;;;;5067946;28;20233;-82
2021/09/30 05:13:05;;;;;;;10.93;2.00;;;9.90;99.90;;;;;;5065315;28;20189;-82
2021/09/30 05:15:32;;;;;;;10.13;2.17;;;9.90;99.90;;;;;;5063189;28;20276;-82
2021/09/30 05:18:00;;;;;;;8.83;1.87;;;9.90;99.90;;;;;;5083236;28;20213;-82
2021/09/30 05:20:26;;;;;;;9.23;2.03;;;9.90;99.90;;;;;;5085166;28;20225;-81
2021/09/30 05:22:52;;;;;;;8.63;2.40;;;9.90;99.90;;;;;;5065639;28;20285;-81
2021/09/30 05:25:18;;;;;;;9.73;2.10;;;9.90;99.90;;;;;;5063819;28;20191;-81
2021/09/30 05:27:44;;;;;;;16.53;2.50;;;9.90;99.90;;;;;;5075277;28;20187;-81
2021/09/30 05:30:12;;;;;;;9.67;1.93;;;10.00;99.90;;;;;;5065190;28;20193;-81
2021/09/30 05:32:39;;;;;;;11.07;2.40;;;10.00;99.90;;;;;;5049112;28;20191;-81
2021/09/30 05:35:10;;;;;;;12.47;2.50;;;10.00;99.90;;;;;;5047055;28;20271;-81
2021/09/30 05:37:46;;;;;;;10.37;2.27;;;10.00;99.90;;;;;;5054312;28;20192;-81
2021/09/30 05:40:15;;;;;;;8.80;2.20;;;10.10;99.90;;;;;;5060035;28;20588;-81
2021/09/30 05:42:45;;;;;;;11.47;2.57;;;10.20;99.90;;;;;;5072766;28;20199;-81
2021/09/30 05:45:14;;;;;;;9.43;2.57;;;10.20;99.90;;;;;;5059466;28;20613;-81
2021/09/30 05:47:41;;;;;;;10.43;2.67;;;10.30;99.90;;;;;;5053609;28;20191;-81
2021/09/30 05:50:11;;;;;;;10.30;2.10;;;10.30;99.90;;;;;;5061315;28;20213;-81
2021/09/30 05:53:00;;;;;;;10.53;2.00;;;10.30;99.90;;;;;;5056002;28;20187;-81
2021/09/30 05:55:32;;;;;;;12.23;2.27;;;10.40;99.90;;;;;;5067196;28;20182;-81
2021/09/30 05:58:01;;;;;;;7.50;2.10;;;10.40;99.90;;;;;;5049661;28;20317;-81
2021/09/30 06:00:34;;;;;;;10.50;2.00;;;10.40;99.90;;;;;;5070614;28;20284;-81
2021/09/30 06:11:19;;;;;;;11.57;2.10;;;10.60;99.90;;;;;;5067433;28;20881;-81
2021/09/30 06:16:30;;;;;;;14.73;2.43;;;10.70;99.90;;;;;;5077428;28;20191;-81
2021/09/30 06:19:06;;;;;;;9.47;2.37;;;10.70;99.90;;;;;;5058521;28;20256;-80
2021/09/30 06:21:34;;;;;;;10.33;2.50;;;10.80;99.90;;;;;;5068114;28;20666;-80
2021/09/30 06:24:00;;;;;;;12.97;2.33;;;10.80;99.90;;;;;;5069580;28;20211;-81
2021/09/30 06:26:28;;;;;;;15.40;3.07;;;10.90;99.90;;;;;;5051294;28;20195;-80
2021/09/30 06:29:14;;;;;;;11.23;2.43;;;10.90;99.90;;;;;;5069414;28;20184;-80
2021/09/30 06:31:41;;;;;;;9.67;2.40;;;10.90;99.90;;;;;;5053466;28;20184;-81
2021/09/30 06:34:25;;;;;;;11.17;2.50;;;11.00;99.90;;;;;;5067900;28;20201;-81
2021/09/30 06:37:11;;;;;;;10.60;2.47;;;11.10;99.90;;;;;;5063985;28;20184;-81
2021/09/30 06:39:37;;;;;;;12.57;2.07;;;11.20;99.90;;;;;;5065830;28;20252;-80
2021/09/30 06:42:05;;;;;;;13.83;2.40;;;11.20;99.90;;;;;;5049534;28;20183;-81
2021/09/30 06:44:46;;;;;;;13.63;2.37;;;11.30;99.90;;;;;;5064499;28;20210;-81
2021/09/30 06:47:38;;;;;;;7.90;2.27;;;11.50;99.90;;;;;;5069550;28;20188;-81
2021/09/30 06:50:15;;;;;;;10.37;2.30;;;11.70;99.90;;;;;;5046711;28;20194;-81
2021/09/30 06:52:53;;;;;;;9.27;2.50;;;11.80;99.90;;;;;;5065783;28;20199;-81
2021/09/30 06:55:42;;;;;;;10.10;2.57;;;11.90;99.90;;;;;;5052900;28;20630;-81
2021/09/30 06:58:26;;;;;;;12.50;2.63;;;12.10;99.90;;;;;;5069401;28;20323;-80
2021/09/30 07:01:12;;;;;;;9.90;2.47;;;12.30;99.90;;;;;;5073127;28;20241;-81
2021/09/30 07:04:08;;;;;;;10.73;2.47;;;12.50;99.90;;;;;;5052683;28;20193;-81
2021/09/30 07:06:59;;;;;;;15.40;2.93;;;12.70;99.90;;;;;;5050378;28;20177;-81
2021/09/30 07:09:27;;;;;;;11.77;3.07;;;12.90;99.90;;;;;;5064260;28;20276;-81
2021/09/30 07:11:53;;;;;;;9.77;2.87;;;13.10;99.90;;;;;;5047838;28;21015;-81
2021/09/30 07:14:18;;;;;;;10.13;2.63;;;13.40;99.90;;;;;;5051992;28;20197;-81
2021/09/30 07:16:44;;;;;;;11.70;3.03;;;13.60;99.90;;;;;;5064029;28;20276;-82
2021/09/30 07:19:10;;;;;;;13.43;2.97;;;13.90;99.90;;;;;;5060453;28;20309;-80
2021/09/30 07:21:35;;;;;;;11.53;2.93;;;14.20;99.90;;;;;;5064063;28;20263;-81
2021/09/30 07:24:01;;;;;;;10.10;3.10;;;14.50;99.90;;;;;;5064568;28;20181;-81
2021/09/30 07:26:27;;;;;;;16.03;3.37;;;15.00;99.90;;;;;;5058944;28;20266;-81
2021/09/30 07:28:53;;;;;;;11.23;2.73;;;15.70;99.90;;;;;;5052639;28;20171;-82
2021/09/30 07:31:19;;;;;;;8.67;2.87;;;16.10;99.90;;;;;;5061080;28;20192;-81
2021/09/30 07:33:44;;;;;;;10.67;2.70;;;16.20;99.90;;;;;;5064439;28;20200;-81
2021/09/30 07:36:13;;;;;;;9.77;2.53;;;16.20;99.90;;;;;;5063306;28;20227;-81
2021/09/30 07:38:39;;;;;;;12.40;3.13;;;16.20;99.90;;;;;;5060851;28;20344;-81
2021/09/30 07:41:05;;;;;;;15.63;3.13;;;16.30;99.90;;;;;;5051591;28;20541;-81
2021/09/30 07:43:31;;;;;;;14.03;3.30;;;16.20;99.90;;;;;;5048133;28;20214;-81
2021/09/30 07:45:57;;;;;;;12.80;3.07;;;16.10;99.90;;;;;;5079708;28;20299;-80
2021/09/30 07:48:22;;;;;;;9.23;2.87;;;16.00;99.90;;;;;;5050554;28;20184;-81
2021/09/30 07:50:48;;;;;;;11.90;2.97;;;15.90;99.90;;;;;;5049762;28;20195;-81
2021/09/30 07:53:15;;;;;;;14.10;3.40;;;16.00;99.90;;;;;;5048578;28;20184;-81
2021/09/30 07:55:42;;;;;;;9.13;2.60;;;16.20;99.90;;;;;;5058564;28;20545;-81
2021/09/30 07:58:09;;;;;;;15.30;2.80;;;16.50;99.90;;;;;;5064998;28;20171;-81
2021/09/30 08:00:40;;;;;;;12.30;3.03;;;16.70;99.90;;;;;;5058216;28;20312;-81
2021/09/30 08:03:07;;;;;;;10.63;2.90;;;17.30;99.90;;;;;;5067240;28;20535;-81
2021/09/30 08:05:36;;;;;;;13.07;2.93;;;17.50;99.90;;;;;;5051107;28;20216;-81
2021/09/30 08:08:06;;;;;;;10.20;2.90;;;17.90;99.90;;;;;;5061832;28;20205;-81
2021/09/30 08:10:34;;;;;;;9.87;2.60;;;18.50;99.90;;;;;;5065614;28;20181;-81
2021/09/30 08:13:00;;;;;;;11.47;2.80;;;18.80;99.90;;;;;;5072831;28;20282;-81
2021/09/30 08:15:26;;;;;;;10.23;2.70;;;19.20;99.90;;;;;;5060751;28;20272;-81
2021/09/30 08:17:52;;;;;;;11.63;2.80;;;19.50;99.90;;;;;;5049688;28;20183;-81
2021/09/30 08:20:19;;;;;;;8.27;2.53;;;19.20;99.90;;;;;;5059707;28;20630;-81
2021/09/30 08:22:47;;;;;;;8.87;2.70;;;19.00;99.90;;;;;;5065590;28;20187;-81
2021/09/30 08:25:13;;;;;;;10.33;2.73;;;18.50;99.90;;;;;;5066117;28;20638;-81
2021/09/30 08:27:39;;;;;;;8.77;2.67;;;18.20;99.90;;;;;;5060370;28;20184;-81
2021/09/30 08:30:06;;;;;;;10.37;2.60;;;18.00;99.90;;;;;;5073813;28;20260;-81
2021/09/30 08:32:32;;;;;;;11.23;2.37;;;18.00;99.90;;;;;;5050886;28;20598;-82
2021/09/30 08:34:57;;;;;;;14.10;2.70;;;18.20;99.90;;;;;;5065145;28;20179;-81
2021/09/30 08:37:23;;;;;;;10.53;2.63;;;18.40;99.90;;;;;;5046883;28;20194;-81
2021/09/30 08:39:49;;;;;;;13.27;3.20;;;18.30;99.90;;;;;;5067150;28;20226;-81
2021/09/30 08:42:15;;;;;;;10.93;2.83;;;18.30;99.90;;;;;;5049323;28;20199;-81
2021/09/30 08:44:41;;;;;;;12.13;3.00;;;18.00;99.90;;;;;;5062805;28;20183;-81
2021/09/30 08:47:07;;;;;;;12.57;3.23;;;18.00;99.90;;;;;;5061069;28;20188;-81
2021/09/30 08:49:34;;;;;;;15.80;2.70;;;17.70;99.90;;;;;;5062828;28;20364;-81
2021/09/30 08:52:00;;;;;;;15.50;3.33;;;17.70;99.90;;;;;;5068147;28;20185;-81
2021/09/30 08:54:26;;;;;;;15.73;3.20;;;17.80;99.90;;;;;;5052655;28;20637;-81
2021/09/30 08:56:52;;;;;;;11.63;2.83;;;17.80;99.90;;;;;;5068913;28;20178;-80
2021/09/30 08:59:26;;;;;;;12.67;3.60;;;17.90;99.90;;;;;;5060130;28;20209;-82
2021/09/30 09:02:14;;;;;;;16.40;4.77;;;17.70;99.90;;;;;;5060156;28;20271;-81
2021/09/30 09:04:58;;;;;;;14.97;5.13;;;17.80;99.90;;;;;;5070649;28;20194;-81
2021/09/30 09:07:31;;;;;;;17.43;5.80;;;17.90;99.90;;;;;;5068701;28;20187;-81
2021/09/30 09:09:58;;;;;;;15.93;6.20;;;18.10;99.90;;;;;;5054595;28;20214;-81
2021/09/30 09:12:31;;;;;;;18.43;7.10;;;18.20;99.90;;;;;;5048332;28;20197;-80
2021/09/30 09:14:59;;;;;;;16.10;6.40;;;18.40;99.90;;;;;;5070210;28;20277;-81
2021/09/30 09:17:25;;;;;;;16.17;7.00;;;18.40;99.90;;;;;;5065492;28;20241;-81
2021/09/30 09:19:53;;;;;;;17.27;7.10;;;18.30;99.90;;;;;;5068018;28;20237;-81
2021/09/30 09:22:30;;;;;;;17.07;7.13;;;18.30;99.90;;;;;;5055217;28;20656;-81
2021/09/30 09:25:02;;;;;;;19.10;6.93;;;18.30;99.90;;;;;;5062194;28;20737;-82
2021/09/30 09:27:55;;;;;;;16.13;6.40;;;18.40;99.90;;;;;;5071500;28;20207;-81
2021/09/30 09:30:45;;;;;;;18.47;6.57;;;18.60;99.90;;;;;;5057319;28;20197;-81
2021/09/30 09:33:11;;;;;;;16.73;5.47;;;18.80;99.90;;;;;;5066951;28;20588;-81
2021/09/30 09:35:44;;;;;;;16.07;5.07;;;19.10;99.90;;;;;;5042783;28;20198;-81
2021/09/30 09:38:12;;;;;;;12.53;4.00;;;19.20;99.90;;;;;;5067811;28;20236;-81
2021/09/30 09:40:37;;;;;;;11.10;3.77;;;19.20;99.90;;;;;;5056740;28;20264;-81
2021/09/30 09:43:31;;;;;;;17.80;3.70;;;19.10;99.90;;;;;;5049586;28;20610;-81
2021/09/30 09:45:59;;;;;;;15.70;3.53;;;18.70;99.90;;;;;;5050397;28;20210;-81
2021/09/30 09:48:24;;;;;;;13.47;3.13;;;18.40;99.90;;;;;;5058753;28;20227;-81
2021/09/30 09:50:52;;;;;;;14.27;3.40;;;18.00;99.90;;;;;;5060190;28;20221;-81
2021/09/30 09:53:19;;;;;;;14.27;3.10;;;17.70;99.90;;;;;;5056986;28;20278;-81
2021/09/30 09:55:45;;;;;;;10.67;3.03;;;17.40;99.90;;;;;;5068200;28;20191;-81
2021/09/30 09:58:11;;;;;;;13.07;2.70;;;17.10;99.90;;;;;;5067488;28;20272;-81
2021/09/30 10:00:59;;;;;;;13.90;3.03;;;17.00;99.90;;;;;;5072500;28;20244;-81
2021/09/30 10:03:30;;;;;;;15.50;2.90;;;17.10;99.90;;;;;;5066535;28;20187;-81
2021/09/30 10:05:57;;;;;;;9.10;2.80;;;17.10;99.90;;;;;;5056648;28;20226;-81
2021/09/30 10:08:23;;;;;;;10.47;2.77;;;17.00;99.90;;;;;;5051750;28;20273;-81
2021/09/30 10:10:50;;;;;;;12.23;2.80;;;16.90;99.90;;;;;;5068796;28;20185;-81
2021/09/30 10:13:17;;;;;;;13.00;3.10;;;17.00;99.90;;;;;;5052554;28;20209;-81
2021/09/30 10:15:43;;;;;;;14.93;3.20;;;17.00;99.90;;;;;;5045557;28;20612;-82
2021/09/30 10:18:11;;;;;;;11.27;2.87;;;16.90;99.90;;;;;;5066923;28;20260;-82
2021/09/30 10:20:39;;;;;;;11.80;3.43;;;17.10;99.90;;;;;;5052918;28;20256;-81
2021/09/30 10:23:07;;;;;;;10.97;3.33;;;17.20;99.90;;;;;;5055807;28;20185;-81
2021/09/30 10:25:36;;;;;;;12.80;3.40;;;17.40;99.90;;;;;;5053858;28;20277;-81
2021/09/30 10:28:03;;;;;;;12.10;3.23;;;17.60;99.90;;;;;;5071582;28;20193;-81
2021/09/30 10:30:36;;;;;;;14.50;4.60;;;17.80;99.90;;;;;;5068803;28;20221;-81
2021/09/30 10:33:05;;;;;;;13.43;3.53;;;18.00;99.90;;;;;;5066126;28;20224;-81
2021/09/30 10:35:33;;;;;;;13.50;3.67;;;18.20;99.90;;;;;;5066937;28;20196;-81
2021/09/30 10:38:22;;;;;;;14.17;3.93;;;18.30;99.90;;;;;;5066496;28;20191;-81
2021/09/30 10:41:14;;;;;;;12.53;3.47;;;18.50;99.90;;;;;;5039979;28;20303;-82
2021/09/30 10:43:44;;;;;;;12.57;4.17;;;18.60;99.90;;;;;;5066158;28;20254;-81
2021/09/30 10:46:22;;;;;;;12.33;3.73;;;18.40;99.90;;;;;;5067661;28;20282;-79
2021/09/30 10:48:50;;;;;;;14.67;4.20;;;18.20;99.90;;;;;;5053233;28;20193;-82
2021/09/30 10:51:17;;;;;;;11.93;3.90;;;18.00;99.90;;;;;;5043295;28;20186;-81
2021/09/30 10:53:45;;;;;;;13.33;4.23;;;17.90;99.90;;;;;;5067981;28;20190;-82
2021/09/30 10:56:41;;;;;;;15.63;4.93;;;17.80;99.90;;;;;;5046333;28;20209;-82
2021/09/30 10:59:07;;;;;;;14.23;4.30;;;17.80;99.90;;;;;;5051848;28;20742;-82
2021/09/30 11:01:34;;;;;;;11.70;4.50;;;17.80;99.90;;;;;;5052581;28;20186;-81
2021/09/30 11:04:05;;;;;;;18.70;4.77;;;17.70;99.90;;;;;;5055409;28;20199;-83
2021/09/30 11:06:31;;;;;;;14.77;4.40;;;17.70;99.90;;;;;;5045437;28;20265;-79
2021/09/30 11:09:21;;;;;;;13.83;3.67;;;17.70;99.90;;;;;;5071815;28;20177;-79
2021/09/30 11:12:05;;;;;;;12.50;3.33;;;17.60;99.90;;;;;;5060233;28;20220;-80
2021/09/30 11:14:31;;;;;;;17.77;4.10;;;17.40;99.90;;;;;;5066845;28;20194;-80
2021/09/30 11:16:57;;;;;;;13.17;3.90;;;17.40;99.90;;;;;;5049364;28;20268;-79
2021/09/30 11:19:33;;;;;;;13.17;4.83;;;17.40;99.90;;;;;;5052554;28;20224;-81
2021/09/30 11:22:11;;;;;;;15.93;4.60;;;17.50;99.90;;;;;;5053060;28;20198;-81
2021/09/30 11:25:06;;;;;;;15.50;3.80;;;17.60;99.90;;;;;;5068407;28;20186;-81
2021/09/30 11:30:29;;;;;;;14.27;5.57;;;17.60;99.90;;;;;;5068154;28;20202;-80
2021/09/30 11:32:57;;;;;;;14.47;4.80;;;17.50;99.90;;;;;;5071940;28;20194;-80
2021/09/30 11:35:22;;;;;;;15.77;4.43;;;17.60;99.90;;;;;;5063627;28;20219;-81
2021/09/30 11:37:48;;;;;;;13.93;4.00;;;17.80;99.90;;;;;;5052734;28;20232;-81
2021/09/30 11:40:17;;;;;;;18.03;4.43;;;17.80;99.90;;;;;;5064063;28;20213;-81
2021/09/30 11:42:47;;;;;;;11.93;5.63;;;17.90;99.90;;;;;;5066788;28;20252;-80
2021/09/30 11:45:16;;;;;;;12.87;4.23;;;18.10;99.90;;;;;;5058870;28;20249;-81
2021/09/30 11:47:45;;;;;;;10.60;3.67;;;18.20;99.90;;;;;;5065158;28;20216;-81
2021/09/30 11:50:28;;;;;;;13.90;3.50;;;18.30;99.90;;;;;;5066351;28;20186;-82
2021/09/30 11:52:57;;;;;;;9.50;3.50;;;18.40;99.90;;;;;;5052430;28;20191;-80
2021/09/30 11:55:27;;;;;;;10.07;3.37;;;18.60;99.90;;;;;;5067851;28;20191;-81
2021/09/30 11:57:59;;;;;;;11.57;3.07;;;18.80;99.90;;;;;;5062942;28;20727;-80
2021/09/30 12:00:26;;;;;;;14.23;3.20;;;18.80;99.90;;;;;;5067913;28;20219;-81
2021/09/30 12:03:06;;;;;;;11.97;3.33;;;18.80;99.90;;;;;;5051218;28;20522;-82
2021/09/30 12:05:37;;;;;;;12.77;3.10;;;18.80;99.90;;;;;;5069905;28;20209;-81
2021/09/30 12:08:06;;;;;;;9.57;2.80;;;18.70;99.90;;;;;;5069649;28;20203;-81
2021/09/30 12:10:35;;;;;;;11.10;3.10;;;18.60;99.90;;;;;;5059934;28;20313;-81
2021/09/30 12:13:12;;;;;;;8.63;2.37;;;18.40;99.90;;;;;;5068576;28;20189;-81
2021/09/30 12:15:37;;;;;;;9.60;2.40;;;18.30;99.90;;;;;;5050115;28;20660;-80
2021/09/30 12:18:14;;;;;;;11.63;3.20;;;18.10;99.90;;;;;;5051728;28;20199;-81
2021/09/30 12:20:50;;;;;;;23.53;10.57;;;18.10;99.90;;;;;;5047511;28;20234;-80
2021/09/30 12:23:16;;;;;;;40.20;24.53;;;18.20;99.90;;;;;;5065526;28;20641;-81
2021/09/30 12:25:42;;;;;;;46.07;26.40;;;18.10;99.90;;;;;;5069472;28;20582;-81
2021/09/30 12:28:08;;;;;;;48.73;27.67;;;18.20;99.90;;;;;;5063634;28;20194;-80
2021/09/30 12:30:39;;;;;;;26.57;14.77;;;18.30;99.90;;;;;;5063006;28;20262;-80
2021/09/30 12:33:05;;;;;;;77.37;37.83;;;18.50;99.90;;;;;;5045526;28;20273;-80
2021/09/30 12:35:38;;;;;;;61.57;25.30;;;18.70;99.90;;;;;;5049646;28;20274;-80
2021/09/30 12:38:18;;;;;;;15.57;5.97;;;18.80;99.90;;;;;;5066043;28;20191;-81
2021/09/30 12:40:50;;;;;;;16.63;4.10;;;18.70;99.90;;;;;;5060990;28;20709;-80
2021/09/30 12:43:26;;;;;;;12.97;4.00;;;18.80;99.90;;;;;;5062000;28;20222;-80
2021/09/30 12:46:05;;;;;;;13.27;3.73;;;18.90;99.90;;;;;;5062545;28;20183;-81
2021/09/30 12:48:33;;;;;;;11.67;3.67;;;19.10;99.90;;;;;;5072998;28;20254;-80
2021/09/30 12:51:11;;;;;;;14.67;3.60;;;19.30;99.90;;;;;;5068757;28;20184;-81
2021/09/30 12:53:46;;;;;;;11.57;2.93;;;19.50;99.90;;;;;;5070133;28;20183;-80
2021/09/30 12:56:15;;;;;;;13.90;4.13;;;19.70;99.90;;;;;;5050617;28;20187;-81
2021/09/30 12:58:47;;;;;;;12.60;2.43;;;19.80;99.90;;;;;;5069654;28;20195;-80
2021/09/30 13:01:33;;;;;;;10.73;2.43;;;19.90;99.90;;;;;;5067184;28;20186;-80
2021/09/30 13:04:04;;;;;;;10.37;2.27;;;20.00;99.90;;;;;;5068473;28;20207;-80
2021/09/30 13:06:30;;;;;;;9.83;2.50;;;20.00;99.90;;;;;;5053585;28;20202;-81
2021/09/30 13:08:56;;;;;;;13.70;2.60;;;19.80;99.90;;;;;;5042754;28;20233;-81
2021/09/30 13:11:30;;;;;;;9.67;2.17;;;19.50;99.90;;;;;;5072213;28;20237;-82
2021/09/30 13:14:16;;;;;;;13.23;2.47;;;19.20;99.90;;;;;;5067218;28;20541;-80
2021/09/30 13:16:45;;;;;;;8.90;1.83;;;19.00;99.90;;;;;;5051443;28;20271;-80
2021/09/30 13:19:11;;;;;;;12.47;2.23;;;19.10;99.90;;;;;;5066680;28;20236;-81
2021/09/30 13:21:59;;;;;;;12.77;1.90;;;19.10;99.90;;;;;;5051113;28;20221;-80
2021/09/30 13:24:25;;;;;;;13.70;2.13;;;19.30;99.90;;;;;;5052633;28;20186;-81
2021/09/30 13:26:51;;;;;;;8.20;1.73;;;19.30;99.90;;;;;;5065550;28;20647;-81
2021/09/30 13:29:17;;;;;;;6.70;1.80;;;19.30;99.90;;;;;;5069906;28;20177;-80
2021/09/30 13:31:43;;;;;;;5.57;1.50;;;19.40;99.90;;;;;;5064491;28;20207;-82
2021/09/30 13:34:09;;;;;;;6.23;1.50;;;19.30;99.90;;;;;;5064425;28;20599;-80
2021/09/30 13:36:35;;;;;;;9.30;1.80;;;19.30;99.90;;;;;;5067437;28;20233;-81
2021/09/30 13:39:01;;;;;;;9.53;1.70;;;19.40;99.90;;;;;;5063005;28;20220;-80
2021/09/30 13:41:28;;;;;;;10.07;2.00;;;19.40;99.90;;;;;;5068824;28;20185;-81
2021/09/30 13:43:54;;;;;;;7.60;1.43;;;19.50;99.90;;;;;;5067151;28;20224;-81
2021/09/30 13:46:19;;;;;;;8.03;1.30;;;19.30;99.90;;;;;;5070893;28;20179;-81
2021/09/30 13:48:45;;;;;;;11.40;1.33;;;19.20;99.90;;;;;;5071983;28;20240;-82
2021/09/30 13:51:11;;;;;;;9.17;1.43;;;19.10;99.90;;;;;;5053392;28;20271;-81
2021/09/30 13:53:37;;;;;;;9.93;1.20;;;18.80;99.90;;;;;;5052287;28;20537;-81
2021/09/30 13:56:03;;;;;;;10.20;1.20;;;18.90;99.90;;;;;;5068519;28;20189;-82
2021/09/30 13:58:32;;;;;;;6.83;1.10;;;18.80;99.90;;;;;;5069644;28;20704;-81
2021/09/30 14:00:58;;;;;;;10.73;1.40;;;18.70;99.90;;;;;;5052350;28;20216;-81
2021/09/30 14:03:24;;;;;;;8.77;1.50;;;18.50;99.90;;;;;;5069420;28;20217;-82
2021/09/30 14:05:50;;;;;;;10.93;1.50;;;18.40;99.90;;;;;;5065024;28;20182;-82
2021/09/30 14:08:18;;;;;;;13.47;1.50;;;18.40;99.90;;;;;;5052845;28;20183;-81
2021/09/30 14:10:44;;;;;;;9.27;1.37;;;18.40;99.90;;;;;;5070458;28;20183;-81
2021/09/30 14:13:11;;;;;;;9.83;1.70;;;18.30;99.90;;;;;;5067260;28;20178;-81
2021/09/30 14:15:37;;;;;;;7.40;1.50;;;18.30;99.90;;;;;;5068858;28;20202;-80
2021/09/30 14:18:03;;;;;;;7.20;1.43;;;18.30;99.90;;;;;;5065199;28;20236;-81
2021/09/30 14:20:28;;;;;;;9.53;1.50;;;18.40;99.90;;;;;;5064183;28;20233;-80
2021/09/30 14:22:54;;;;;;;7.93;1.40;;;18.50;99.90;;;;;;5058129;28;20183;-80
2021/09/30 14:25:20;;;;;;;7.57;1.27;;;18.40;99.90;;;;;;5066958;28;20195;-82
2021/09/30 14:27:46;;;;;;;10.30;1.40;;;18.30;99.90;;;;;;5070715;28;20238;-82
2021/09/30 14:30:12;;;;;;;8.67;1.30;;;18.20;99.90;;;;;;5061775;28;20202;-81
2021/09/30 14:32:37;;;;;;;8.33;1.40;;;18.20;99.90;;;;;;5053375;28;20243;-81
2021/09/30 14:35:04;;;;;;;6.50;1.10;;;18.20;99.90;;;;;;5059024;28;20328;-81
2021/09/30 14:37:30;;;;;;;10.63;1.50;;;18.30;99.90;;;;;;5063527;28;20661;-81
2021/09/30 14:39:55;;;;;;;7.67;1.33;;;18.40;99.90;;;;;;5051049;28;20314;-81
2021/09/30 14:42:21;;;;;;;6.43;1.40;;;18.40;99.90;;;;;;5067855;28;20346;-81
2021/09/30 14:44:47;;;;;;;12.87;1.40;;;18.40;99.90;;;;;;5064977;28;20194;-81
2021/09/30 14:47:14;;;;;;;9.07;1.60;;;18.50;99.90;;;;;;5065414;28;20259;-82
2021/09/30 14:49:40;;;;;;;8.00;0.97;;;18.50;99.90;;;;;;5046648;28;20192;-82
2021/09/30 14:52:08;;;;;;;8.47;1.30;;;18.30;99.90;;;;;;5054855;28;20196;-82
2021/09/30 14:54:34;;;;;;;10.40;1.40;;;18.40;99.90;;;;;;5058125;28;20202;-81
2021/09/30 14:56:59;;;;;;;6.97;1.23;;;18.30;99.90;;;;;;5051992;28;20195;-81
2021/09/30 14:59:25;;;;;;;9.47;1.50;;;18.30;99.90;;;;;;5070919;28;20214;-81
2021/09/30 15:01:51;;;;;;;12.27;1.93;;;18.10;99.90;;;;;;5048328;28;20212;-81
2021/09/30 15:04:16;;;;;;;15.17;2.00;;;18.10;99.90;;;;;;5069490;28;20198;-81
2021/09/30 15:06:42;;;;;;;7.47;1.30;;;18.10;99.90;;;;;;5055794;28;20590;-80
2021/09/30 15:09:08;;;;;;;9.07;1.40;;;18.10;99.90;;;;;;5052404;28;20244;-81
2021/09/30 15:11:37;;;;;;;4.90;1.00;;;18.00;99.90;;;;;;5078204;28;20180;-81
2021/09/30 15:14:05;;;;;;;9.10;1.47;;;18.00;99.90;;;;;;5062308;28;20205;-81
2021/09/30 15:16:32;;;;;;;5.57;1.30;;;18.00;99.90;;;;;;5061178;28;20192;-81
2021/09/30 15:19:36;;;;;;;4.97;1.20;;;18.00;99.90;;;;;;5043683;28;20703;-81
2021/09/30 15:21:52;;;;;;;10.30;1.77;;;17.90;99.90;;;;;;5067955;28;20209;-81
2021/09/30 15:24:18;;;;;;;8.20;1.47;;;18.00;99.90;;;;;;5057780;28;20183;-80
2021/09/30 15:26:44;;;;;;;7.83;1.60;;;18.00;99.90;;;;;;5053420;28;20191;-81
2021/09/30 15:29:11;;;;;;;6.90;1.37;;;17.90;99.90;;;;;;5063330;28;20176;-80
2021/09/30 15:31:39;;;;;;;8.50;1.30;;;17.90;99.90;;;;;;5049460;28;20608;-80
2021/09/30 15:34:06;;;;;;;7.63;1.70;;;17.80;99.90;;;;;;5069095;28;20181;-82
2021/09/30 15:36:32;;;;;;;5.80;1.40;;;17.80;99.90;;;;;;5066154;28;20229;-81
2021/09/30 15:39:00;;;;;;;10.40;2.20;;;17.80;99.90;;;;;;5052160;28;20644;-81
2021/09/30 15:41:27;;;;;;;12.87;2.90;;;17.80;99.90;;;;;;5067656;28;20544;-82
2021/09/30 15:43:53;;;;;;;7.47;1.70;;;17.80;99.90;;;;;;5052384;28;20222;-81
2021/09/30 15:46:19;;;;;;;8.67;1.90;;;17.80;99.90;;;;;;5047206;28;20183;-81
2021/09/30 15:48:45;;;;;;;8.17;2.20;;;17.70;99.90;;;;;;5052361;28;20849;-81
2021/09/30 15:51:12;;;;;;;12.30;4.00;;;17.70;99.90;;;;;;5049938;28;20183;-82
2021/09/30 15:53:39;;;;;;;9.27;2.20;;;17.70;99.90;;;;;;5063690;28;20194;-81
2021/09/30 15:56:09;;;;;;;7.67;2.10;;;17.80;99.90;;;;;;5065999;28;20271;-81
2021/09/30 15:58:35;;;;;;;10.57;2.10;;;17.90;99.90;;;;;;5070778;28;20203;-81
2021/09/30 16:01:01;;;;;;;12.03;3.70;;;17.90;99.90;;;;;;5053010;28;20230;-82